createdAt,value
2023-05-06T00:02:01.823Z,5.13
2023-05-06T00:04:28.464Z,6.43
2023-05-06T00:06:56.854Z,5.40
2023-05-06T00:09:24.315Z,5.07
2023-05-06T00:11:51.485Z,5.60
2023-05-06T00:14:18.250Z,5.60
2023-05-06T00:16:45.052Z,5.32
2023-05-06T00:19:12.582Z,6.28
2023-05-06T00:21:39.287Z,5.82
2023-05-06T00:24:06.448Z,6.07
2023-05-06T00:26:33.129Z,5.15
2023-05-06T00:28:59.757Z,5.85
2023-05-06T00:31:26.509Z,6.72
2023-05-06T00:33:53.124Z,6.72
2023-05-06T00:36:19.880Z,6.55
2023-05-06T00:38:46.684Z,6.47
2023-05-06T00:41:13.329Z,6.75
2023-05-06T00:43:40.058Z,7.03
2023-05-06T00:46:09.500Z,7.10
2023-05-06T00:48:36.612Z,6.50
2023-05-06T00:51:04.705Z,6.50
2023-05-06T00:53:31.416Z,6.82
2023-05-06T00:55:58.514Z,6.53
2023-05-06T00:58:25.399Z,6.82
2023-05-06T01:00:52.339Z,6.80
2023-05-06T01:03:19.375Z,6.75
2023-05-06T01:06:09.093Z,6.60
2023-05-06T01:08:45.727Z,7.57
2023-05-06T01:11:17.341Z,6.75
2023-05-06T01:14:02.795Z,7.32
2023-05-06T01:16:31.709Z,7.10
2023-05-06T01:19:00.246Z,6.70
2023-05-06T01:21:34.766Z,6.75
2023-05-06T01:24:02.066Z,7.60
2023-05-06T01:26:28.762Z,7.35
2023-05-06T01:28:57.046Z,7.78
2023-05-06T01:31:31.490Z,8.07
2023-05-06T01:34:16.962Z,7.78
2023-05-06T01:37:06.646Z,7.20
2023-05-06T01:39:34.086Z,6.95
2023-05-06T01:42:02.672Z,8.98
2023-05-06T01:44:33.533Z,7.32
2023-05-06T01:47:01.234Z,8.07
2023-05-06T01:49:29.351Z,8.20
2023-05-06T01:51:56.412Z,7.68
2023-05-06T01:54:23.163Z,8.45
2023-05-06T01:56:49.825Z,7.80
2023-05-06T01:59:16.508Z,8.52
2023-05-06T02:01:43.202Z,8.20
2023-05-06T02:04:09.934Z,8.73
2023-05-06T02:06:36.572Z,8.02
2023-05-06T02:09:03.424Z,8.68
2023-05-06T02:11:30.151Z,8.40
2023-05-06T02:13:56.993Z,9.57
2023-05-06T02:16:27.042Z,8.98
2023-05-06T02:21:20.713Z,8.85
2023-05-06T02:23:47.311Z,8.27
2023-05-06T02:26:13.954Z,8.55
2023-05-06T02:28:40.674Z,8.35
2023-05-06T02:31:07.456Z,8.07
2023-05-06T02:33:34.155Z,8.70
2023-05-06T02:36:00.850Z,8.60
2023-05-06T02:38:27.690Z,9.13
2023-05-06T02:40:54.355Z,10.32
2023-05-06T02:43:22.979Z,8.93
2023-05-06T02:45:49.709Z,9.15
2023-05-06T02:48:16.395Z,8.63
2023-05-06T02:50:43.005Z,9.23
2023-05-06T02:53:10.525Z,8.85
2023-05-06T02:55:37.160Z,7.88
2023-05-06T02:58:03.781Z,8.20
2023-05-06T03:00:31.267Z,8.07
2023-05-06T03:02:57.901Z,8.93
2023-05-06T03:05:24.567Z,9.30
2023-05-06T03:07:51.270Z,9.13
2023-05-06T03:10:18.009Z,8.85
2023-05-06T03:12:44.646Z,8.77
2023-05-06T03:15:11.676Z,8.77
2023-05-06T03:17:38.499Z,8.88
2023-05-06T03:20:08.226Z,9.90
2023-05-06T03:22:34.945Z,8.95
2023-05-06T03:25:01.572Z,8.77
2023-05-06T03:27:28.143Z,8.48
2023-05-06T03:29:54.799Z,9.27
2023-05-06T03:32:21.493Z,8.82
2023-05-06T03:34:48.078Z,8.65
2023-05-06T03:37:14.736Z,8.75
2023-05-06T03:39:41.515Z,8.13
2023-05-06T03:42:09.775Z,9.32
2023-05-06T03:44:36.625Z,10.27
2023-05-06T03:47:03.318Z,10.25
2023-05-06T03:49:30.051Z,9.55
2023-05-06T03:51:56.942Z,10.55
2023-05-06T03:54:23.650Z,10.48
2023-05-06T03:56:50.545Z,9.70
2023-05-06T03:59:17.225Z,9.43
2023-05-06T04:01:43.905Z,9.85
2023-05-06T04:04:10.783Z,9.82
2023-05-06T04:06:37.564Z,10.25
2023-05-06T04:09:06.214Z,9.90
2023-05-06T04:11:32.919Z,9.75
2023-05-06T04:13:59.520Z,10.23
2023-05-06T04:16:26.603Z,9.77
2023-05-06T04:18:53.447Z,9.63
2023-05-06T04:21:20.101Z,9.02
2023-05-06T04:23:46.769Z,9.75
2023-05-06T04:26:13.444Z,8.57
2023-05-06T04:28:40.148Z,9.05
2023-05-06T04:31:08.674Z,9.98
2023-05-06T04:33:35.792Z,9.30
2023-05-06T04:36:03.506Z,9.35
2023-05-06T04:38:32.200Z,8.75
2023-05-06T04:40:59.670Z,8.77
2023-05-06T04:43:29.577Z,8.73
2023-05-06T04:45:56.366Z,9.27
2023-05-06T04:48:23.152Z,11.32
2023-05-06T04:50:50.557Z,10.70
2023-05-06T04:53:17.539Z,9.48
2023-05-06T04:55:44.383Z,9.18
2023-05-06T04:58:11.055Z,10.02
2023-05-06T05:00:37.685Z,9.80
2023-05-06T05:03:04.453Z,9.45
2023-05-06T05:05:34.676Z,9.18
2023-05-06T05:08:01.357Z,9.63
2023-05-06T05:10:28.129Z,9.65
2023-05-06T05:12:54.758Z,9.25
2023-05-06T05:15:21.816Z,9.27
2023-05-06T05:17:49.364Z,9.65
2023-05-06T05:20:16.476Z,9.98
2023-05-06T05:22:43.104Z,10.18
2023-05-06T05:25:10.272Z,9.48
2023-05-06T05:27:37.156Z,9.90
2023-05-06T05:30:04.658Z,9.57
2023-05-06T05:32:31.378Z,9.88
2023-05-06T05:34:58.016Z,9.68
2023-05-06T05:37:24.769Z,9.30
2023-05-06T05:39:51.643Z,9.73
2023-05-06T05:42:18.238Z,9.23
2023-05-06T05:44:44.873Z,9.77
2023-05-06T05:47:11.941Z,9.57
2023-05-06T05:49:38.587Z,9.48
2023-05-06T05:52:05.256Z,9.50
2023-05-06T05:54:31.927Z,9.77
2023-05-06T05:56:58.992Z,10.35
2023-05-06T05:59:25.921Z,9.27
2023-05-06T06:01:52.553Z,9.13
2023-05-06T06:04:19.270Z,9.60
2023-05-06T06:06:46.472Z,10.35
2023-05-06T06:09:13.617Z,10.57
2023-05-06T06:11:40.805Z,10.57
2023-05-06T06:14:07.553Z,11.00
2023-05-06T06:16:34.512Z,12.43
2023-05-06T06:19:01.283Z,14.65
2023-05-06T06:21:28.011Z,13.13
2023-05-06T06:23:54.628Z,15.45
2023-05-06T06:26:21.580Z,14.25
2023-05-06T06:28:48.431Z,13.88
2023-05-06T06:31:15.087Z,13.60
2023-05-06T06:33:41.818Z,12.80
2023-05-06T06:36:08.924Z,13.40
2023-05-06T06:38:35.736Z,13.13
2023-05-06T06:41:02.475Z,13.02
2023-05-06T06:43:29.101Z,13.30
2023-05-06T06:45:56.356Z,14.15
2023-05-06T06:48:23.604Z,13.80
2023-05-06T06:50:50.325Z,12.40
2023-05-06T06:53:17.473Z,12.90
2023-05-06T06:55:45.622Z,12.10
2023-05-06T06:58:12.311Z,12.30
2023-05-06T07:00:39.030Z,13.55
2023-05-06T07:03:05.825Z,13.20
2023-05-06T07:05:32.504Z,13.57
2023-05-06T07:07:59.153Z,13.57
2023-05-06T07:10:25.982Z,14.02
2023-05-06T07:12:52.744Z,14.48
2023-05-06T07:15:19.506Z,14.07
2023-05-06T07:17:46.218Z,14.27
2023-05-06T07:20:13.348Z,14.73
2023-05-06T07:22:41.305Z,14.45
2023-05-06T07:25:08.818Z,14.32
2023-05-06T07:27:35.678Z,13.93
2023-05-06T07:30:02.497Z,15.32
2023-05-06T07:32:29.484Z,15.32
2023-05-06T07:34:56.100Z,14.88
2023-05-06T07:37:22.796Z,16.45
2023-05-06T07:39:49.416Z,16.83
2023-05-06T07:42:16.052Z,15.27
2023-05-06T07:44:43.203Z,17.05
2023-05-06T07:47:09.985Z,18.23
2023-05-06T07:49:36.768Z,16.63
2023-05-06T07:52:04.183Z,17.10
2023-05-06T07:54:31.732Z,16.13
2023-05-06T07:56:58.959Z,16.30
2023-05-06T07:59:25.830Z,15.90
2023-05-06T08:01:52.482Z,16.05
2023-05-06T08:04:19.189Z,17.30
2023-05-06T08:06:46.014Z,15.52
2023-05-06T08:09:16.933Z,16.73
2023-05-06T08:11:46.525Z,15.15
2023-05-06T08:14:13.121Z,14.38
2023-05-06T08:16:39.909Z,14.23
2023-05-06T08:19:06.550Z,14.10
2023-05-06T08:21:33.289Z,13.57
2023-05-06T08:23:59.916Z,13.07
2023-05-06T08:26:26.605Z,13.70
2023-05-06T08:28:53.430Z,13.70
2023-05-06T08:31:20.071Z,13.80
2023-05-06T08:33:46.759Z,13.73
2023-05-06T08:36:13.354Z,13.98
2023-05-06T08:38:40.281Z,12.15
2023-05-06T08:41:09.557Z,11.85
2023-05-06T08:43:42.964Z,12.23
2023-05-06T08:46:09.708Z,12.02
2023-05-06T08:48:37.572Z,10.68
2023-05-06T08:51:04.644Z,10.90
2023-05-06T08:53:33.179Z,9.90
2023-05-06T08:56:08.612Z,10.13
2023-05-06T08:58:37.552Z,10.23
2023-05-06T09:01:04.968Z,9.70
2023-05-06T09:03:31.834Z,9.10
2023-05-06T09:05:58.651Z,9.93
2023-05-06T09:08:25.283Z,10.18
2023-05-06T09:10:51.941Z,10.15
2023-05-06T09:13:19.645Z,9.43
2023-05-06T09:15:48.661Z,9.23
2023-05-06T09:18:16.535Z,8.70
2023-05-06T09:20:45.684Z,9.02
2023-05-06T09:23:14.984Z,8.15
2023-05-06T09:25:43.002Z,8.93
2023-05-06T09:28:11.345Z,8.68
2023-05-06T09:30:40.858Z,8.98
2023-05-06T09:33:08.216Z,8.32
2023-05-06T09:35:39.133Z,7.95
2023-05-06T09:38:07.575Z,7.60
2023-05-06T09:40:38.218Z,7.35
2023-05-06T09:43:05.911Z,8.27
2023-05-06T09:45:33.287Z,7.20
2023-05-06T09:48:00.649Z,7.90
2023-05-06T09:50:27.448Z,7.90
2023-05-06T09:52:55.524Z,8.00
2023-05-06T09:55:23.715Z,7.75
2023-05-06T09:57:50.535Z,7.97
2023-05-06T10:00:17.778Z,6.88
2023-05-06T10:02:45.970Z,6.50
2023-05-06T10:05:13.887Z,6.47
2023-05-06T10:07:44.236Z,6.60
2023-05-06T10:10:12.204Z,6.38
2023-05-06T10:12:39.696Z,5.97
2023-05-06T10:15:07.156Z,5.68
2023-05-06T10:17:35.538Z,6.43
2023-05-06T10:20:04.656Z,7.25
2023-05-06T10:22:44.142Z,5.30
2023-05-06T10:25:19.253Z,5.07
2023-05-06T10:27:46.733Z,6.28
2023-05-06T10:30:17.255Z,5.50
2023-05-06T10:35:20.320Z,5.70
2023-05-06T10:37:49.109Z,6.00
2023-05-06T10:40:16.057Z,6.47
2023-05-06T10:42:42.910Z,5.93
2023-05-06T10:45:11.055Z,5.65
2023-05-06T10:47:56.079Z,6.00
2023-05-06T10:50:26.895Z,5.40
2023-05-06T10:52:56.213Z,5.43
2023-05-06T10:55:26.160Z,5.35
2023-05-06T10:58:11.953Z,5.22
2023-05-06T11:00:38.593Z,5.55
2023-05-06T11:03:13.433Z,4.78
2023-05-06T11:05:50.501Z,5.95
2023-05-06T11:08:25.597Z,5.38
2023-05-06T11:10:53.502Z,5.32
2023-05-06T11:13:28.239Z,5.40
2023-05-06T11:15:56.258Z,5.40
2023-05-06T11:18:26.908Z,5.35
2023-05-06T11:21:02.854Z,5.43
2023-05-06T11:23:42.168Z,6.18
2023-05-06T11:26:10.372Z,6.28
2023-05-06T11:28:38.994Z,5.32
2023-05-06T11:31:06.014Z,5.18
2023-05-06T11:33:34.352Z,6.07
2023-05-06T11:36:01.846Z,5.40
2023-05-06T11:38:46.000Z,5.57
2023-05-06T11:41:13.771Z,5.32
2023-05-06T11:43:45.681Z,5.03
2023-05-06T11:46:12.340Z,5.00
2023-05-06T11:48:40.254Z,5.70
2023-05-06T11:51:08.190Z,5.82
2023-05-06T11:53:35.067Z,5.97
2023-05-06T11:56:02.355Z,5.07
2023-05-06T11:58:30.415Z,4.90
2023-05-06T12:00:59.933Z,4.80
2023-05-06T12:03:28.834Z,5.13
2023-05-06T12:05:56.140Z,4.88
2023-05-06T12:08:29.707Z,5.07
2023-05-06T12:11:02.279Z,4.43
2023-05-06T12:13:29.472Z,4.68
2023-05-06T12:15:58.989Z,4.93
2023-05-06T12:18:26.508Z,5.50
2023-05-06T12:20:57.530Z,5.30
2023-05-06T12:23:24.351Z,5.60
2023-05-06T12:26:05.566Z,5.03
2023-05-06T12:28:35.250Z,4.32
2023-05-06T12:31:21.972Z,4.18
2023-05-06T12:33:50.064Z,4.53
2023-05-06T12:36:17.983Z,3.83
2023-05-06T12:38:59.169Z,5.75
2023-05-06T12:41:37.312Z,4.93
2023-05-06T12:44:24.545Z,5.00
2023-05-06T12:46:52.600Z,5.13
2023-05-06T12:49:19.297Z,4.30
2023-05-06T12:51:47.647Z,4.88
2023-05-06T12:54:30.681Z,4.25
2023-05-06T12:56:57.424Z,4.63
2023-05-06T12:59:27.075Z,5.10
2023-05-06T13:01:54.164Z,4.88
2023-05-06T13:04:22.257Z,4.65
2023-05-06T13:06:50.665Z,3.70
2023-05-06T13:09:17.762Z,4.13
2023-05-06T13:11:44.630Z,4.20
2023-05-06T13:14:11.336Z,4.30
2023-05-06T13:16:38.374Z,4.93
2023-05-06T13:19:05.185Z,4.82
2023-05-06T13:21:32.342Z,3.95
2023-05-06T13:23:59.217Z,3.50
2023-05-06T13:26:26.657Z,3.50
2023-05-06T13:28:53.377Z,3.72
2023-05-06T13:31:20.172Z,3.50
2023-05-06T13:33:46.862Z,3.92
2023-05-06T13:36:13.491Z,3.38
2023-05-06T13:38:40.146Z,4.07
2023-05-06T13:41:07.577Z,4.28
2023-05-06T13:43:34.224Z,4.13
2023-05-06T13:46:00.947Z,3.78
2023-05-06T13:48:27.525Z,3.90
2023-05-06T13:50:54.133Z,3.45
2023-05-06T13:53:21.516Z,3.75
2023-05-06T13:55:48.195Z,3.30
2023-05-06T13:58:14.862Z,3.08
2023-05-06T14:00:41.540Z,3.17
2023-05-06T14:03:08.342Z,3.03
2023-05-06T14:05:35.135Z,3.25
2023-05-06T14:08:01.790Z,3.20
2023-05-06T14:10:28.479Z,3.08
2023-05-06T14:12:55.174Z,3.97
2023-05-06T14:15:22.028Z,3.30
2023-05-06T14:17:48.810Z,2.90
2023-05-06T14:20:15.729Z,3.40
2023-05-06T14:22:42.606Z,3.10
2023-05-06T14:25:10.506Z,3.65
2023-05-06T14:27:37.456Z,3.40
2023-05-06T14:30:08.640Z,3.33
2023-05-06T14:32:36.500Z,3.22
2023-05-06T14:35:03.168Z,3.22
2023-05-06T14:37:30.193Z,3.20
2023-05-06T14:39:57.515Z,3.05
2023-05-06T14:42:24.222Z,3.60
2023-05-06T14:44:50.909Z,3.30
2023-05-06T14:47:17.691Z,3.55
2023-05-06T14:49:44.325Z,3.75
2023-05-06T14:52:11.070Z,3.47
2023-05-06T14:54:42.199Z,3.70
2023-05-06T14:57:09.707Z,3.72
2023-05-06T14:59:37.038Z,3.10
2023-05-06T15:02:04.552Z,3.67
2023-05-06T15:04:31.209Z,3.33
2023-05-06T15:06:58.067Z,3.95
2023-05-06T15:09:25.718Z,3.58
2023-05-06T15:11:52.650Z,4.00
2023-05-06T15:14:19.297Z,3.63
2023-05-06T15:16:46.033Z,3.50
2023-05-06T15:19:12.830Z,4.60
2023-05-06T15:21:39.451Z,4.90
2023-05-06T15:24:06.614Z,5.38
2023-05-06T15:26:33.205Z,4.63
2023-05-06T15:29:00.006Z,4.60
2023-05-06T15:31:27.016Z,4.50
2023-05-06T15:33:53.626Z,4.38
2023-05-06T15:36:20.263Z,4.00
2023-05-06T15:38:52.955Z,4.35
2023-05-06T15:41:19.777Z,4.50
2023-05-06T15:43:46.368Z,4.38
2023-05-06T15:46:12.994Z,4.07
2023-05-06T15:48:39.675Z,5.93
2023-05-06T15:51:06.331Z,4.18
2023-05-06T15:53:33.028Z,3.60
2023-05-06T15:56:13.102Z,3.70
2023-05-06T15:58:44.013Z,3.67
2023-05-06T16:01:11.466Z,4.15
2023-05-06T16:03:41.210Z,3.72
2023-05-06T16:06:09.627Z,3.67
2023-05-06T16:08:40.363Z,4.25
2023-05-06T16:11:07.363Z,3.15
2023-05-06T16:13:34.560Z,3.70
2023-05-06T16:16:01.782Z,3.80
2023-05-06T16:18:28.523Z,4.97
2023-05-06T16:20:55.235Z,3.58
2023-05-06T16:23:22.034Z,4.50
2023-05-06T16:25:48.780Z,4.25
2023-05-06T16:28:15.550Z,3.85
2023-05-06T16:30:44.756Z,3.45
2023-05-06T16:33:12.707Z,4.68
2023-05-06T16:35:39.642Z,3.75
2023-05-06T16:38:06.575Z,4.38
2023-05-06T16:40:41.362Z,4.75
2023-05-06T16:43:09.200Z,4.53
2023-05-06T16:45:35.846Z,4.85
2023-05-06T16:48:02.645Z,6.50
2023-05-06T16:50:29.299Z,5.10
2023-05-06T16:52:55.918Z,4.93
2023-05-06T16:55:22.633Z,4.50
2023-05-06T16:57:49.384Z,4.13
2023-05-06T17:00:16.715Z,4.85
2023-05-06T17:02:43.584Z,5.18
2023-05-06T17:05:10.507Z,4.35
2023-05-06T17:07:37.191Z,5.20
2023-05-06T17:10:04.685Z,4.85
2023-05-06T17:12:32.437Z,4.65
2023-05-06T17:14:59.079Z,5.10
2023-05-06T17:17:28.797Z,4.82
2023-05-06T17:19:57.389Z,4.90
2023-05-06T17:22:26.373Z,4.88
2023-05-06T17:24:53.444Z,4.67
2023-05-06T17:27:20.199Z,5.20
2023-05-06T17:29:46.883Z,5.47
2023-05-06T17:32:13.500Z,5.80
2023-05-06T17:34:40.341Z,5.63
2023-05-06T17:37:07.121Z,5.45
2023-05-06T17:39:34.102Z,5.97
2023-05-06T17:42:02.559Z,7.68
2023-05-06T17:44:29.276Z,6.60
2023-05-06T17:46:56.143Z,5.63
2023-05-06T17:49:23.412Z,7.18
2023-05-06T17:51:51.158Z,6.38
2023-05-06T17:54:17.942Z,6.90
2023-05-06T17:56:50.501Z,6.63
2023-05-06T17:59:19.006Z,7.25
2023-05-06T18:01:46.079Z,7.55
2023-05-06T18:04:12.985Z,7.13
2023-05-06T18:06:41.832Z,7.40
2023-05-06T18:09:10.284Z,7.45
2023-05-06T18:11:38.205Z,7.30
2023-05-06T18:14:05.653Z,8.23
2023-05-06T18:16:32.370Z,8.85
2023-05-06T18:19:00.889Z,8.75
2023-05-06T18:21:27.897Z,8.98
2023-05-06T18:24:01.898Z,9.55
2023-05-06T18:26:43.953Z,9.55
2023-05-06T18:29:11.982Z,9.68
2023-05-06T18:31:38.678Z,10.35
2023-05-06T18:34:05.437Z,10.77
2023-05-06T18:36:32.692Z,10.30
2023-05-06T18:38:59.324Z,11.13
2023-05-06T18:41:26.129Z,11.10
2023-05-06T18:43:52.820Z,10.95
2023-05-06T18:46:19.595Z,11.52
2023-05-06T18:48:46.262Z,11.30
2023-05-06T18:51:17.405Z,12.43
2023-05-06T18:53:44.895Z,12.43
2023-05-06T18:56:11.938Z,12.70
2023-05-06T18:58:40.675Z,13.80
2023-05-06T19:01:09.153Z,14.00
2023-05-06T19:03:36.373Z,13.77
2023-05-06T19:06:05.363Z,13.82
2023-05-06T19:08:32.319Z,15.15
2023-05-06T19:10:59.490Z,14.20
2023-05-06T19:13:26.374Z,14.77
2023-05-06T19:15:53.283Z,15.50
2023-05-06T19:18:20.056Z,15.57
2023-05-06T19:20:46.841Z,16.27
2023-05-06T19:23:13.584Z,15.73
2023-05-06T19:25:40.309Z,16.58
2023-05-06T19:28:06.977Z,16.13
2023-05-06T19:30:35.008Z,16.48
2023-05-06T19:33:02.698Z,15.75
2023-05-06T19:35:29.419Z,16.83
2023-05-06T19:37:56.384Z,15.98
2023-05-06T19:40:23.320Z,16.98
2023-05-06T19:42:50.315Z,17.08
2023-05-06T19:45:19.072Z,17.65
2023-05-06T19:47:46.541Z,18.73
2023-05-06T19:50:13.437Z,18.70
2023-05-06T19:52:40.635Z,18.17
2023-05-06T19:55:07.882Z,17.95
2023-05-06T19:57:34.617Z,18.40
2023-05-06T20:00:05.964Z,18.50
2023-05-06T20:02:33.045Z,19.83
2023-05-06T20:05:00.590Z,17.63
2023-05-06T20:07:27.855Z,19.20
2023-05-06T20:09:56.078Z,19.67
2023-05-06T20:12:23.641Z,20.33
2023-05-06T20:14:50.471Z,19.55
2023-05-06T20:17:17.103Z,21.42
2023-05-06T20:19:47.903Z,20.30
2023-05-06T20:22:14.950Z,20.95
2023-05-06T20:24:42.930Z,20.65
2023-05-06T20:27:10.232Z,20.08
2023-05-06T20:29:36.877Z,19.92
2023-05-06T20:32:03.622Z,20.05
2023-05-06T20:34:30.401Z,21.48
2023-05-06T20:36:57.472Z,20.45
2023-05-06T20:39:24.093Z,18.92
2023-05-06T20:41:50.778Z,19.42
2023-05-06T20:44:17.460Z,20.55
2023-05-06T20:46:44.259Z,21.90
2023-05-06T20:49:11.739Z,20.48
2023-05-06T20:51:38.367Z,21.13
2023-05-06T20:54:05.066Z,20.42
2023-05-06T20:56:31.731Z,22.70
2023-05-06T20:58:58.534Z,22.35
2023-05-06T21:01:25.811Z,20.73
2023-05-06T21:03:52.594Z,20.92
2023-05-06T21:06:19.639Z,22.75
2023-05-06T21:08:47.058Z,22.35
2023-05-06T21:11:14.110Z,21.73
2023-05-06T21:13:41.757Z,22.65
2023-05-06T21:16:08.562Z,21.77
2023-05-06T21:18:36.811Z,22.05
2023-05-06T21:21:03.852Z,22.38
2023-05-06T21:23:31.002Z,22.50
2023-05-06T21:25:59.380Z,23.58
2023-05-06T21:28:26.236Z,23.08
2023-05-06T21:30:52.953Z,23.20
2023-05-06T21:33:19.617Z,22.38
2023-05-06T21:35:46.333Z,22.95
2023-05-06T21:38:12.983Z,24.20
2023-05-06T21:40:39.664Z,23.13
2023-05-06T21:43:06.296Z,23.55
2023-05-06T21:45:32.941Z,21.88
2023-05-06T21:47:59.645Z,21.35
2023-05-06T21:50:26.724Z,21.50
2023-05-06T21:52:53.362Z,20.88
2023-05-06T21:55:20.155Z,21.95
2023-05-06T21:57:46.879Z,21.58
2023-05-06T22:00:14.014Z,21.08
2023-05-06T22:02:41.160Z,19.92
2023-05-06T22:05:08.785Z,18.77
2023-05-06T22:07:36.026Z,18.58
2023-05-06T22:10:03.304Z,21.38
2023-05-06T22:12:30.913Z,19.95
2023-05-06T22:14:57.577Z,21.23
2023-05-06T22:17:24.443Z,20.05
2023-05-06T22:19:51.896Z,20.75
2023-05-06T22:22:19.154Z,20.45
2023-05-06T22:24:48.106Z,20.13
2023-05-06T22:27:14.913Z,20.27
2023-05-06T22:29:41.674Z,19.58
2023-05-06T22:32:08.463Z,20.98
2023-05-06T22:34:35.197Z,19.48
2023-05-06T22:37:08.282Z,19.52
2023-05-06T22:39:35.061Z,20.73
2023-05-06T22:42:01.785Z,20.17
2023-05-06T22:44:28.444Z,22.83
2023-05-06T22:46:55.093Z,20.45
2023-05-06T22:49:21.845Z,19.80
2023-05-06T22:51:48.578Z,19.55
2023-05-06T22:54:15.258Z,19.63
2023-05-06T22:56:41.964Z,20.50
2023-05-06T22:59:08.570Z,21.02
2023-05-06T23:01:35.247Z,21.25
2023-05-06T23:04:02.055Z,20.13
2023-05-06T23:06:28.737Z,19.95
2023-05-06T23:08:55.408Z,20.30
2023-05-06T23:11:22.071Z,20.30
2023-05-06T23:13:48.813Z,19.80
2023-05-06T23:16:15.914Z,20.67
2023-05-06T23:18:42.627Z,21.33
2023-05-06T23:21:09.422Z,20.67
2023-05-06T23:23:36.088Z,19.15
2023-05-06T23:26:02.848Z,18.98
2023-05-06T23:28:29.750Z,20.42
2023-05-06T23:30:56.427Z,18.48
2023-05-06T23:33:23.113Z,19.30
2023-05-06T23:35:49.753Z,19.08
2023-05-06T23:38:16.455Z,18.52
2023-05-06T23:40:43.145Z,18.25
2023-05-06T23:43:11.268Z,17.42
2023-05-06T23:45:38.072Z,16.95
2023-05-06T23:48:05.293Z,16.88
2023-05-06T23:50:32.050Z,17.88
2023-05-06T23:52:58.734Z,16.98
2023-05-06T23:55:28.050Z,17.02
2023-05-06T23:57:54.953Z,17.92
